createdAt,value
2022-10-09T00:01:05.625Z,16.92
2022-10-09T00:03:40.919Z,17.30
2022-10-09T00:06:10.163Z,17.17
2022-10-09T00:08:41.309Z,16.50
2022-10-09T00:11:09.820Z,17.40
2022-10-09T00:13:37.721Z,17.10
2022-10-09T00:16:06.983Z,17.40
2022-10-09T00:18:34.363Z,17.75
2022-10-09T00:21:01.364Z,18.50
2022-10-09T00:23:28.520Z,17.50
2022-10-09T00:26:01.275Z,16.77
2022-10-09T00:28:30.195Z,16.38
2022-10-09T00:30:57.114Z,17.63
2022-10-09T00:33:24.180Z,17.35
2022-10-09T00:35:51.371Z,17.75
2022-10-09T00:38:18.095Z,15.40
2022-10-09T00:40:44.896Z,15.85
2022-10-09T00:43:19.443Z,17.42
2022-10-09T00:45:56.315Z,17.08
2022-10-09T00:48:23.663Z,15.40
2022-10-09T00:50:54.551Z,17.30
2022-10-09T00:53:24.413Z,17.55
2022-10-09T00:55:52.393Z,16.27
2022-10-09T00:58:19.879Z,16.92
2022-10-09T01:00:46.690Z,15.02
2022-10-09T01:03:13.664Z,17.33
2022-10-09T01:06:13.124Z,17.20
2022-10-09T01:09:01.930Z,16.45
2022-10-09T01:12:16.542Z,16.40
2022-10-09T01:14:56.778Z,15.07
2022-10-09T01:17:49.796Z,16.08
2022-10-09T01:20:29.272Z,15.88
2022-10-09T01:23:20.409Z,16.17
2022-10-09T01:26:06.098Z,16.50
2022-10-09T01:28:35.006Z,16.90
2022-10-09T01:31:05.985Z,17.15
2022-10-09T01:33:34.007Z,16.48
2022-10-09T01:36:01.679Z,17.17
2022-10-09T01:38:29.650Z,15.85
2022-10-09T01:40:57.024Z,16.15
2022-10-09T01:43:23.780Z,17.15
2022-10-09T01:45:50.752Z,16.30
2022-10-09T01:48:25.222Z,15.55
2022-10-09T01:51:02.225Z,16.17
2022-10-09T01:53:29.992Z,15.55
2022-10-09T01:56:05.161Z,15.00
2022-10-09T01:58:34.096Z,16.52
2022-10-09T02:01:12.563Z,15.23
2022-10-09T02:03:42.659Z,15.88
2022-10-09T02:06:12.745Z,16.13
2022-10-09T02:08:41.667Z,18.67
2022-10-09T02:11:10.851Z,18.38
2022-10-09T02:13:38.547Z,15.73
2022-10-09T02:16:20.579Z,17.05
2022-10-09T02:18:57.852Z,15.63
2022-10-09T02:21:39.502Z,16.42
2022-10-09T02:24:10.286Z,15.90
2022-10-09T02:26:38.558Z,15.95
2022-10-09T02:29:05.385Z,14.85
2022-10-09T02:31:36.532Z,16.88
2022-10-09T02:34:09.006Z,14.77
2022-10-09T02:36:36.850Z,15.93
2022-10-09T02:39:05.267Z,16.98
2022-10-09T02:41:32.721Z,15.98
2022-10-09T02:43:59.657Z,16.80
2022-10-09T02:46:26.668Z,15.77
2022-10-09T02:48:53.635Z,18.08
2022-10-09T02:51:20.902Z,16.58
2022-10-09T02:53:47.767Z,16.95
2022-10-09T02:56:14.837Z,16.80
2022-10-09T02:58:41.864Z,19.23
2022-10-09T03:01:08.956Z,18.42
2022-10-09T03:03:35.706Z,19.17
2022-10-09T03:06:09.410Z,21.45
2022-10-09T03:08:37.885Z,19.73
2022-10-09T03:11:05.538Z,20.63
2022-10-09T03:13:32.863Z,21.27
2022-10-09T03:16:08.196Z,19.90
2022-10-09T03:18:35.873Z,19.88
2022-10-09T03:21:10.026Z,21.60
2022-10-09T03:23:37.978Z,23.00
2022-10-09T03:26:08.259Z,23.10
2022-10-09T03:28:40.319Z,22.98
2022-10-09T03:31:07.862Z,23.10
2022-10-09T03:33:35.898Z,22.27
2022-10-09T03:36:04.597Z,22.48
2022-10-09T03:38:31.692Z,23.15
2022-10-09T03:40:59.470Z,24.13
2022-10-09T03:43:26.651Z,22.73
2022-10-09T03:45:53.560Z,22.60
2022-10-09T03:48:20.381Z,23.48
2022-10-09T03:50:47.921Z,24.80
2022-10-09T03:53:15.635Z,24.27
2022-10-09T03:55:43.522Z,25.45
2022-10-09T03:58:10.709Z,24.05
2022-10-09T04:00:37.787Z,24.48
2022-10-09T04:03:04.629Z,24.40
2022-10-09T04:05:35.249Z,26.35
2022-10-09T04:08:02.216Z,26.65
2022-10-09T04:10:29.493Z,25.15
2022-10-09T04:12:56.500Z,25.63
2022-10-09T04:15:23.452Z,24.65
2022-10-09T04:17:50.349Z,24.58
2022-10-09T04:20:17.975Z,23.55
2022-10-09T04:22:45.474Z,25.88
2022-10-09T04:25:12.395Z,25.77
2022-10-09T04:27:39.132Z,24.70
2022-10-09T04:30:06.736Z,27.50
2022-10-09T04:32:33.513Z,24.20
2022-10-09T04:35:00.224Z,26.98
2022-10-09T04:37:27.230Z,27.38
2022-10-09T04:39:53.958Z,27.17
2022-10-09T04:42:20.709Z,28.50
2022-10-09T04:44:47.655Z,27.10
2022-10-09T04:47:14.436Z,28.20
2022-10-09T04:49:41.162Z,27.85
2022-10-09T04:52:08.119Z,28.27
2022-10-09T04:54:34.851Z,29.27
2022-10-09T04:57:01.580Z,27.45
2022-10-09T04:59:28.569Z,28.85
2022-10-09T05:01:55.405Z,28.35
2022-10-09T05:04:22.259Z,25.65
2022-10-09T05:06:49.171Z,26.10
2022-10-09T05:09:15.995Z,23.80
2022-10-09T05:11:43.095Z,23.80
2022-10-09T05:14:10.533Z,23.38
2022-10-09T05:16:49.712Z,23.98
2022-10-09T05:19:24.293Z,24.40
2022-10-09T05:21:51.047Z,24.75
2022-10-09T05:24:17.803Z,23.52
2022-10-09T05:26:44.827Z,23.38
2022-10-09T05:29:11.635Z,25.33
2022-10-09T05:31:38.435Z,25.48
2022-10-09T05:34:05.449Z,24.35
2022-10-09T05:36:32.318Z,22.52
2022-10-09T05:39:01.178Z,26.77
2022-10-09T05:41:29.653Z,24.77
2022-10-09T05:44:01.586Z,25.77
2022-10-09T05:46:29.854Z,24.13
2022-10-09T05:49:00.141Z,26.17
2022-10-09T05:51:30.524Z,24.02
2022-10-09T05:53:58.749Z,24.20
2022-10-09T05:56:34.255Z,23.73
2022-10-09T05:59:04.176Z,24.88
2022-10-09T06:01:36.244Z,24.30
2022-10-09T06:04:09.884Z,23.23
2022-10-09T06:06:38.843Z,22.88
2022-10-09T06:09:07.292Z,23.30
2022-10-09T06:11:35.994Z,23.95
2022-10-09T06:14:04.814Z,22.42
2022-10-09T06:16:35.027Z,23.35
2022-10-09T06:19:02.515Z,22.77
2022-10-09T06:21:29.343Z,23.38
2022-10-09T06:23:58.604Z,23.33
2022-10-09T06:26:29.572Z,21.73
2022-10-09T06:28:58.035Z,23.00
2022-10-09T06:31:27.897Z,22.52
2022-10-09T06:33:58.153Z,21.58
2022-10-09T06:36:27.423Z,21.38
2022-10-09T06:38:55.932Z,20.50
2022-10-09T06:41:24.568Z,22.05
2022-10-09T06:44:04.239Z,19.40
2022-10-09T06:46:37.331Z,18.85
2022-10-09T06:49:05.051Z,19.00
2022-10-09T06:51:32.963Z,16.90
2022-10-09T06:54:01.933Z,18.38
2022-10-09T06:56:30.550Z,19.05
2022-10-09T06:59:05.218Z,16.95
2022-10-09T07:01:34.204Z,17.83
2022-10-09T07:04:07.321Z,16.00
2022-10-09T07:06:38.105Z,16.50
2022-10-09T07:09:07.575Z,16.52
2022-10-09T07:11:38.489Z,16.15
2022-10-09T07:14:08.072Z,16.75
2022-10-09T07:16:41.324Z,16.30
2022-10-09T07:19:11.068Z,14.05
2022-10-09T07:21:41.176Z,14.40
2022-10-09T07:24:09.318Z,14.07
2022-10-09T07:26:38.216Z,14.27
2022-10-09T07:29:07.327Z,14.05
2022-10-09T07:31:34.458Z,15.05
2022-10-09T07:34:01.491Z,13.07
2022-10-09T07:36:28.486Z,13.70
2022-10-09T07:38:57.315Z,12.68
2022-10-09T07:41:27.219Z,12.75
2022-10-09T07:43:54.187Z,12.55
2022-10-09T07:46:23.092Z,13.00
2022-10-09T07:48:51.084Z,13.40
2022-10-09T07:51:26.389Z,12.57
2022-10-09T07:53:53.601Z,13.30
2022-10-09T07:56:23.351Z,11.60
2022-10-09T07:58:54.705Z,10.07
2022-10-09T08:01:27.978Z,9.50
2022-10-09T08:03:55.396Z,8.98
2022-10-09T08:06:23.183Z,7.95
2022-10-09T08:08:55.901Z,8.52
2022-10-09T08:11:24.850Z,7.97
2022-10-09T08:13:52.614Z,7.40
2022-10-09T08:16:21.077Z,7.47
2022-10-09T08:18:48.581Z,7.53
2022-10-09T08:21:18.166Z,7.97
2022-10-09T08:23:45.767Z,7.60
2022-10-09T08:26:19.820Z,10.07
2022-10-09T08:28:53.847Z,7.30
2022-10-09T08:31:21.981Z,7.28
2022-10-09T08:33:53.192Z,7.10
2022-10-09T08:36:20.075Z,6.85
2022-10-09T08:38:48.165Z,6.57
2022-10-09T08:41:33.372Z,7.38
2022-10-09T08:44:10.230Z,5.82
2022-10-09T08:47:01.094Z,4.75
2022-10-09T08:49:50.578Z,5.53
2022-10-09T08:52:25.452Z,5.80
2022-10-09T08:54:55.933Z,5.75
2022-10-09T08:57:23.520Z,4.65
2022-10-09T08:59:50.565Z,5.18
2022-10-09T09:02:29.445Z,6.63
2022-10-09T09:05:43.465Z,5.50
2022-10-09T09:08:32.066Z,5.18
2022-10-09T09:11:34.501Z,5.60
2022-10-09T09:14:25.913Z,5.85
2022-10-09T09:16:55.766Z,5.95
2022-10-09T09:19:28.492Z,5.97
2022-10-09T09:21:56.334Z,6.10
2022-10-09T09:24:40.710Z,7.95
2022-10-09T09:27:19.237Z,6.75
2022-10-09T09:29:59.210Z,5.50
2022-10-09T09:32:29.260Z,6.65
2022-10-09T09:35:21.379Z,6.03
2022-10-09T09:37:48.227Z,6.43
2022-10-09T09:40:36.047Z,6.07
2022-10-09T09:43:14.837Z,6.78
2022-10-09T09:45:43.832Z,6.13
2022-10-09T09:48:25.724Z,7.25
2022-10-09T09:51:10.120Z,6.78
2022-10-09T09:53:43.813Z,6.05
2022-10-09T09:56:11.286Z,6.45
2022-10-09T09:58:53.226Z,5.50
2022-10-09T10:01:26.966Z,6.45
2022-10-09T10:03:57.173Z,6.88
2022-10-09T10:06:35.616Z,6.80
2022-10-09T10:09:06.315Z,6.30
2022-10-09T10:11:35.706Z,6.70
2022-10-09T10:14:07.956Z,6.47
2022-10-09T10:16:37.908Z,6.17
2022-10-09T10:19:06.176Z,6.47
2022-10-09T10:21:48.976Z,6.18
2022-10-09T10:24:22.935Z,6.55
2022-10-09T10:26:58.619Z,6.60
2022-10-09T10:29:33.555Z,6.30
2022-10-09T10:32:22.507Z,6.78
2022-10-09T10:34:55.200Z,6.00
2022-10-09T10:37:31.098Z,6.10
2022-10-09T10:40:02.650Z,6.03
2022-10-09T10:42:59.441Z,6.60
2022-10-09T10:45:39.725Z,7.25
2022-10-09T10:48:11.194Z,5.88
2022-10-09T10:50:50.399Z,6.50
2022-10-09T10:53:49.491Z,7.18
2022-10-09T10:56:21.469Z,5.97
2022-10-09T10:59:01.218Z,6.82
2022-10-09T11:01:40.254Z,6.63
2022-10-09T11:04:34.536Z,7.85
2022-10-09T11:07:16.841Z,7.13
2022-10-09T11:09:58.327Z,6.55
2022-10-09T11:12:52.643Z,6.45
2022-10-09T11:15:26.367Z,5.85
2022-10-09T11:18:09.045Z,6.95
2022-10-09T11:21:14.546Z,5.97
2022-10-09T11:24:09.025Z,6.00
2022-10-09T11:26:54.423Z,6.53
2022-10-09T11:29:29.693Z,6.30
2022-10-09T11:32:07.011Z,6.05
2022-10-09T11:34:39.709Z,5.75
2022-10-09T11:37:18.650Z,7.13
2022-10-09T11:39:46.445Z,6.35
2022-10-09T11:42:18.653Z,8.02
2022-10-09T11:45:18.680Z,7.07
2022-10-09T11:48:06.433Z,6.38
2022-10-09T11:51:01.030Z,6.07
2022-10-09T11:53:30.379Z,5.97
2022-10-09T11:56:09.045Z,6.85
2022-10-09T11:58:35.936Z,6.15
2022-10-09T12:01:22.499Z,5.68
2022-10-09T12:04:01.409Z,6.95
2022-10-09T12:06:29.492Z,5.93
2022-10-09T12:08:56.204Z,6.15
2022-10-09T12:11:24.362Z,6.43
2022-10-09T12:14:02.148Z,6.10
2022-10-09T12:16:40.383Z,5.75
2022-10-09T12:19:37.950Z,6.18
2022-10-09T12:22:19.724Z,5.47
2022-10-09T12:24:53.622Z,6.47
2022-10-09T12:27:40.323Z,5.70
2022-10-09T12:30:14.099Z,5.55
2022-10-09T12:32:50.697Z,6.13
2022-10-09T12:35:41.957Z,5.43
2022-10-09T12:38:17.530Z,5.82
2022-10-09T12:40:47.992Z,5.90
2022-10-09T12:43:18.337Z,6.82
2022-10-09T12:45:48.111Z,5.57
2022-10-09T12:48:20.538Z,6.35
2022-10-09T12:50:48.412Z,6.00
2022-10-09T12:53:25.799Z,5.80
2022-10-09T12:56:00.427Z,5.80
2022-10-09T12:58:31.779Z,6.13
2022-10-09T13:01:05.333Z,6.28
2022-10-09T13:03:40.494Z,5.82
2022-10-09T13:06:15.273Z,6.05
2022-10-09T13:08:42.277Z,6.40
2022-10-09T13:11:12.009Z,6.30
2022-10-09T13:13:41.436Z,6.03
2022-10-09T13:16:10.750Z,6.80
2022-10-09T13:18:38.285Z,6.13
2022-10-09T13:21:22.963Z,7.03
2022-10-09T13:23:50.637Z,6.05
2022-10-09T13:26:25.049Z,6.65
2022-10-09T13:28:52.779Z,6.85
2022-10-09T13:31:19.769Z,6.20
2022-10-09T13:33:47.560Z,6.85
2022-10-09T13:36:16.281Z,7.07
2022-10-09T13:38:43.991Z,6.65
2022-10-09T13:41:20.846Z,7.05
2022-10-09T13:43:49.100Z,6.70
2022-10-09T13:46:16.500Z,7.60
2022-10-09T13:48:46.524Z,6.78
2022-10-09T13:51:13.558Z,5.88
2022-10-09T13:53:40.282Z,6.43
2022-10-09T13:56:08.561Z,6.20
2022-10-09T13:58:35.619Z,6.32
2022-10-09T14:01:02.601Z,6.47
2022-10-09T14:03:29.453Z,7.18
2022-10-09T14:06:01.398Z,6.07
2022-10-09T14:08:28.217Z,7.40
2022-10-09T14:10:55.141Z,7.38
2022-10-09T14:13:22.178Z,7.35
2022-10-09T14:15:49.040Z,6.40
2022-10-09T14:18:15.801Z,7.22
2022-10-09T14:20:42.782Z,7.20
2022-10-09T14:23:09.608Z,6.47
2022-10-09T14:25:36.337Z,6.97
2022-10-09T14:28:03.517Z,7.03
2022-10-09T14:30:30.353Z,6.43
2022-10-09T14:32:57.761Z,6.90
2022-10-09T14:35:25.120Z,6.03
2022-10-09T14:37:51.895Z,6.80
2022-10-09T14:40:18.838Z,6.97
2022-10-09T14:42:45.567Z,6.47
2022-10-09T14:45:12.315Z,7.75
2022-10-09T14:47:39.250Z,7.32
2022-10-09T14:50:06.479Z,6.88
2022-10-09T14:52:33.436Z,7.43
2022-10-09T14:55:00.367Z,6.53
2022-10-09T14:57:30.227Z,6.88
2022-10-09T14:59:59.804Z,7.20
2022-10-09T15:02:26.751Z,6.50
2022-10-09T15:04:53.942Z,7.03
2022-10-09T15:07:20.684Z,7.18
2022-10-09T15:09:47.617Z,7.35
2022-10-09T15:12:14.360Z,6.38
2022-10-09T15:14:41.123Z,6.47
2022-10-09T15:17:08.022Z,6.75
2022-10-09T15:19:34.727Z,8.10
2022-10-09T15:22:01.586Z,6.65
2022-10-09T15:24:28.601Z,6.90
2022-10-09T15:26:55.473Z,7.78
2022-10-09T15:29:22.318Z,7.05
2022-10-09T15:31:51.616Z,6.55
2022-10-09T15:34:19.622Z,7.18
2022-10-09T15:36:47.183Z,7.53
2022-10-09T15:39:15.189Z,7.20
2022-10-09T15:41:43.250Z,8.13
2022-10-09T15:44:20.592Z,6.97
2022-10-09T15:46:48.868Z,6.80
2022-10-09T15:49:15.876Z,7.07
2022-10-09T15:51:42.887Z,7.15
2022-10-09T15:54:11.390Z,8.40
2022-10-09T15:56:40.201Z,6.43
2022-10-09T15:59:10.400Z,6.65
2022-10-09T16:01:37.462Z,6.20
2022-10-09T16:04:04.327Z,5.57
2022-10-09T16:06:31.337Z,6.13
2022-10-09T16:08:59.192Z,5.72
2022-10-09T16:11:26.967Z,5.93
2022-10-09T16:13:55.159Z,5.68
2022-10-09T16:16:25.355Z,5.57
2022-10-09T16:18:52.387Z,5.03
2022-10-09T16:21:22.399Z,5.85
2022-10-09T16:23:50.180Z,5.15
2022-10-09T16:26:21.737Z,4.13
2022-10-09T16:28:49.274Z,4.20
2022-10-09T16:31:20.153Z,4.28
2022-10-09T16:33:47.137Z,3.78
2022-10-09T16:36:14.088Z,3.88
2022-10-09T16:38:41.728Z,4.18
2022-10-09T16:41:11.353Z,4.22
2022-10-09T16:43:39.403Z,3.97
2022-10-09T16:46:18.147Z,3.88
2022-10-09T16:48:45.434Z,4.30
2022-10-09T16:51:15.338Z,3.97
2022-10-09T16:53:42.484Z,3.80
2022-10-09T16:56:16.193Z,3.78
2022-10-09T16:58:43.536Z,4.00
2022-10-09T17:01:11.559Z,4.45
2022-10-09T17:03:41.197Z,3.90
2022-10-09T17:06:10.416Z,3.97
2022-10-09T17:08:37.541Z,3.80
2022-10-09T17:11:12.232Z,3.90
2022-10-09T17:13:40.034Z,4.32
2022-10-09T17:16:18.439Z,4.97
2022-10-09T17:18:47.170Z,5.05
2022-10-09T17:21:14.938Z,4.25
2022-10-09T17:23:42.168Z,4.53
2022-10-09T17:26:11.813Z,5.63
2022-10-09T17:28:40.968Z,4.30
2022-10-09T17:31:10.029Z,4.10
2022-10-09T17:33:42.874Z,4.95
2022-10-09T17:36:10.521Z,4.70
2022-10-09T17:38:37.684Z,4.50
2022-10-09T17:41:05.974Z,5.80
2022-10-09T17:43:33.116Z,4.35
2022-10-09T17:46:00.905Z,4.22
2022-10-09T17:48:29.138Z,4.95
2022-10-09T17:50:57.870Z,5.15
2022-10-09T17:53:25.943Z,4.22
2022-10-09T17:55:54.723Z,4.90
2022-10-09T17:58:23.276Z,4.40
2022-10-09T18:00:51.072Z,4.10
2022-10-09T18:03:18.490Z,4.70
2022-10-09T18:05:48.772Z,4.35
2022-10-09T18:08:18.489Z,4.22
2022-10-09T18:10:45.481Z,3.58
2022-10-09T18:13:12.452Z,3.97
2022-10-09T18:15:43.987Z,3.88
2022-10-09T18:18:11.621Z,3.05
2022-10-09T18:20:39.895Z,3.22
2022-10-09T18:23:07.874Z,3.28
2022-10-09T18:25:35.395Z,3.40
2022-10-09T18:28:02.172Z,3.03
2022-10-09T18:30:29.224Z,3.45
2022-10-09T18:32:56.342Z,3.58
2022-10-09T18:35:23.334Z,3.00
2022-10-09T18:37:50.072Z,2.70
2022-10-09T18:40:16.996Z,3.15
2022-10-09T18:42:43.975Z,3.20
2022-10-09T18:45:14.436Z,3.45
2022-10-09T18:47:41.880Z,3.13
2022-10-09T18:50:11.178Z,3.25
2022-10-09T18:52:38.989Z,3.33
2022-10-09T18:55:07.688Z,4.10
2022-10-09T18:57:34.967Z,3.38
2022-10-09T19:00:02.411Z,3.53
2022-10-09T19:02:32.099Z,4.30
2022-10-09T19:04:59.284Z,3.75
2022-10-09T19:07:26.038Z,4.15
2022-10-09T19:09:57.554Z,3.72
2022-10-09T19:12:25.659Z,4.05
2022-10-09T19:14:52.738Z,3.63
2022-10-09T19:17:19.586Z,4.15
2022-10-09T19:19:46.533Z,4.00
2022-10-09T19:22:16.470Z,3.60
2022-10-09T19:24:44.421Z,3.83
2022-10-09T19:27:11.440Z,3.83
2022-10-09T19:29:38.423Z,3.88
2022-10-09T19:32:05.171Z,4.20
2022-10-09T19:34:32.163Z,4.78
2022-10-09T19:36:59.356Z,3.17
2022-10-09T19:39:26.258Z,4.00
2022-10-09T19:41:53.641Z,4.40
2022-10-09T19:44:21.084Z,5.32
2022-10-09T19:46:48.459Z,4.38
2022-10-09T19:49:15.675Z,3.35
2022-10-09T19:51:43.216Z,4.18
2022-10-09T19:54:10.252Z,5.10
2022-10-09T19:56:38.024Z,4.72
2022-10-09T19:59:07.413Z,3.92
2022-10-09T20:01:35.915Z,4.30
2022-10-09T20:04:07.672Z,4.32
2022-10-09T20:06:38.338Z,4.18
2022-10-09T20:09:07.343Z,5.18
2022-10-09T20:11:34.912Z,5.30
2022-10-09T20:14:02.207Z,5.90
2022-10-09T20:16:32.054Z,4.38
2022-10-09T20:19:03.691Z,4.40
2022-10-09T20:21:32.612Z,4.35
2022-10-09T20:24:01.112Z,4.00
2022-10-09T20:26:31.374Z,4.50
2022-10-09T20:28:58.166Z,3.97
2022-10-09T20:31:27.327Z,4.82
2022-10-09T20:33:55.704Z,3.58
2022-10-09T20:36:31.589Z,3.40
2022-10-09T20:39:01.839Z,4.13
2022-10-09T20:41:30.296Z,4.53
2022-10-09T20:43:59.171Z,3.63
2022-10-09T20:46:28.348Z,3.78
2022-10-09T20:48:55.261Z,3.67
2022-10-09T20:51:23.376Z,3.22
2022-10-09T20:54:02.983Z,3.20
2022-10-09T20:56:31.787Z,3.63
2022-10-09T20:58:59.184Z,3.50
2022-10-09T21:01:28.292Z,3.15
2022-10-09T21:03:56.769Z,3.47
2022-10-09T21:06:24.128Z,2.95
2022-10-09T21:08:50.912Z,3.53
2022-10-09T21:11:18.955Z,3.00
2022-10-09T21:13:47.385Z,3.72
2022-10-09T21:16:18.903Z,3.55
2022-10-09T21:18:46.166Z,3.70
2022-10-09T21:21:15.828Z,3.92
2022-10-09T21:23:43.683Z,3.65
2022-10-09T21:26:15.969Z,3.47
2022-10-09T21:28:44.023Z,4.93
2022-10-09T21:31:19.239Z,3.90
2022-10-09T21:33:47.024Z,3.95
2022-10-09T21:36:30.092Z,3.08
2022-10-09T21:38:57.064Z,3.75
2022-10-09T21:41:24.149Z,3.30
2022-10-09T21:43:50.982Z,3.67
2022-10-09T21:46:17.900Z,3.00
2022-10-09T21:48:44.902Z,2.97
2022-10-09T21:51:11.857Z,3.53
2022-10-09T21:53:38.642Z,3.17
2022-10-09T21:56:06.765Z,3.03
2022-10-09T21:58:33.622Z,2.92
2022-10-09T22:01:02.249Z,2.55
2022-10-09T22:03:32.151Z,3.22
2022-10-09T22:05:59.294Z,2.88
2022-10-09T22:08:26.556Z,2.40
2022-10-09T22:10:53.517Z,2.85
2022-10-09T22:13:22.897Z,2.67
2022-10-09T22:15:51.273Z,2.55
2022-10-09T22:18:19.627Z,2.45
2022-10-09T22:20:49.083Z,2.90
2022-10-09T22:23:25.104Z,2.40
2022-10-09T22:26:04.847Z,2.42
2022-10-09T22:28:32.114Z,2.00
2022-10-09T22:31:11.095Z,2.72
2022-10-09T22:33:38.055Z,1.90
2022-10-09T22:36:17.856Z,2.53
2022-10-09T22:38:45.458Z,2.80
2022-10-09T22:41:17.370Z,2.33
2022-10-09T22:43:46.367Z,1.95
2022-10-09T22:46:18.371Z,1.77
2022-10-09T22:48:46.160Z,2.38
2022-10-09T22:51:15.670Z,2.78
2022-10-09T22:53:44.251Z,1.85
2022-10-09T22:56:19.679Z,1.67
2022-10-09T22:58:48.473Z,1.58
2022-10-09T23:01:25.189Z,2.15
2022-10-09T23:03:52.282Z,2.40
2022-10-09T23:06:19.986Z,2.17
2022-10-09T23:08:48.412Z,2.10
2022-10-09T23:11:16.484Z,2.28
2022-10-09T23:13:45.046Z,2.38
2022-10-09T23:16:13.691Z,2.17
2022-10-09T23:18:41.250Z,2.20
2022-10-09T23:21:11.669Z,2.03
2022-10-09T23:23:38.727Z,2.22
2022-10-09T23:26:06.871Z,1.77
2022-10-09T23:28:35.531Z,1.92
2022-10-09T23:31:09.966Z,2.08
2022-10-09T23:33:39.795Z,1.50
2022-10-09T23:36:08.159Z,1.85
2022-10-09T23:38:35.919Z,1.60
2022-10-09T23:41:08.535Z,1.58
2022-10-09T23:43:38.824Z,1.80
2022-10-09T23:46:07.431Z,1.75
2022-10-09T23:48:35.091Z,2.40
2022-10-09T23:51:02.148Z,1.60
2022-10-09T23:53:29.095Z,1.92
2022-10-09T23:55:55.845Z,1.55
2022-10-09T23:58:22.971Z,1.48
